Brightwaters, New York
Current Conditions -  °F | °C
As of 4:53 AM on Sunday 21 Dec 2014 (Local Time) from KFRG Reporting Station
Overcast Overcast  
Wind Chill: 29°   Ceiling: 2600
Heat Index: 33°   Visibility: 10mi
Dew Point: 24°   Wind: 5mph
Humidity: 70%   Direction: 330°NNW
Pressure: 30.27"   Gusts: NA
Location:  40.72°N, 73.27°W
Report Text: KFRG 210953Z AUTO 33004KT 10SM OVC026 01/M04 A3027 RMK AO2 SLP252 T00061044
Loading
Personal Weather Stations






























Interactive Weather Map New forecast layout! Learn more

10-Day Weather Forecast

Advertisements
Track Severe Weather on mobile